createdAt,value
2022-11-23T00:01:26.908Z,4.65
2022-11-23T00:03:57.154Z,5.30
2022-11-23T00:06:26.340Z,5.00
2022-11-23T00:08:54.645Z,5.05
2022-11-23T00:11:23.614Z,5.30
2022-11-23T00:13:51.102Z,4.93
2022-11-23T00:16:21.462Z,4.30
2022-11-23T00:18:51.396Z,4.70
2022-11-23T00:23:46.259Z,4.47
2022-11-23T00:26:14.491Z,3.88
2022-11-23T00:28:42.192Z,4.25
2022-11-23T00:31:11.258Z,4.03
2022-11-23T00:33:39.818Z,3.97
2022-11-23T00:36:11.541Z,4.57
2022-11-23T00:38:39.673Z,4.97
2022-11-23T00:41:16.068Z,4.75
2022-11-23T00:43:43.962Z,5.05
2022-11-23T00:46:26.393Z,4.45
2022-11-23T00:48:55.906Z,4.72
2022-11-23T00:51:26.242Z,4.90
2022-11-23T00:53:54.155Z,4.65
2022-11-23T00:56:22.055Z,4.40
2022-11-23T00:58:50.715Z,4.50
2022-11-23T01:01:20.463Z,4.70
2022-11-23T01:03:50.839Z,4.05
2022-11-23T01:06:21.102Z,4.40
2022-11-23T01:08:56.007Z,4.35
2022-11-23T01:11:26.519Z,4.50
2022-11-23T01:13:55.003Z,4.40
2022-11-23T01:16:29.110Z,4.05
2022-11-23T01:18:58.113Z,3.92
2022-11-23T01:21:26.595Z,4.87
2022-11-23T01:23:54.739Z,3.88
2022-11-23T01:26:23.328Z,4.80
2022-11-23T01:28:51.219Z,4.53
2022-11-23T01:31:21.664Z,4.35
2022-11-23T01:33:54.376Z,4.10
2022-11-23T01:36:24.655Z,4.25
2022-11-23T01:38:52.413Z,4.20
2022-11-23T01:41:25.422Z,3.95
2022-11-23T01:43:53.494Z,4.25
2022-11-23T01:46:21.459Z,4.50
2022-11-23T01:48:59.905Z,4.50
2022-11-23T01:51:39.338Z,4.30
2022-11-23T01:54:10.695Z,4.00
2022-11-23T01:56:42.114Z,4.22
2022-11-23T01:59:14.045Z,4.38
2022-11-23T02:01:41.433Z,4.72
2022-11-23T02:04:14.617Z,4.38
2022-11-23T02:06:47.742Z,3.95
2022-11-23T02:09:16.500Z,4.35
2022-11-23T02:11:43.905Z,5.05
2022-11-23T02:14:17.862Z,4.38
2022-11-23T02:16:49.308Z,4.28
2022-11-23T02:19:40.959Z,4.03
2022-11-23T02:22:16.114Z,4.15
2022-11-23T02:24:49.345Z,4.13
2022-11-23T02:27:17.377Z,4.15
2022-11-23T02:29:44.712Z,4.70
2022-11-23T02:32:12.034Z,4.38
2022-11-23T02:34:39.371Z,4.05
2022-11-23T02:37:06.758Z,4.40
2022-11-23T02:39:40.442Z,4.57
2022-11-23T02:42:09.301Z,4.40
2022-11-23T02:44:51.173Z,4.07
2022-11-23T02:47:18.562Z,4.55
2022-11-23T02:49:47.673Z,4.55
2022-11-23T02:52:15.626Z,4.70
2022-11-23T02:54:42.925Z,4.85
2022-11-23T02:57:10.555Z,4.40
2022-11-23T02:59:39.665Z,4.50
2022-11-23T03:02:07.463Z,4.82
2022-11-23T03:04:36.015Z,4.32
2022-11-23T03:07:03.309Z,4.38
2022-11-23T03:09:31.352Z,4.40
2022-11-23T03:11:59.500Z,4.65
2022-11-23T03:16:59.957Z,4.65
2022-11-23T03:19:31.366Z,5.35
2022-11-23T03:21:58.969Z,5.03
2022-11-23T03:24:26.321Z,5.35
2022-11-23T03:26:54.874Z,4.82
2022-11-23T03:29:26.494Z,4.50
2022-11-23T03:31:55.781Z,5.03
2022-11-23T03:34:23.789Z,4.70
2022-11-23T03:36:51.800Z,5.30
2022-11-23T03:39:20.126Z,4.70
2022-11-23T03:42:22.474Z,4.68
2022-11-23T03:44:50.565Z,4.35
2022-11-23T03:47:17.908Z,4.55
2022-11-23T03:49:45.833Z,4.90
2022-11-23T03:52:13.236Z,4.97
2022-11-23T03:54:42.643Z,4.97
2022-11-23T03:57:09.992Z,4.45
2022-11-23T03:59:37.970Z,4.93
2022-11-23T04:02:06.155Z,5.53
2022-11-23T04:04:37.647Z,5.20
2022-11-23T04:07:12.396Z,6.00
2022-11-23T04:09:45.923Z,5.28
2022-11-23T04:12:31.835Z,5.25
2022-11-23T04:14:59.337Z,5.10
2022-11-23T04:17:26.630Z,4.90
2022-11-23T04:19:53.933Z,4.32
2022-11-23T04:22:21.345Z,4.55
2022-11-23T04:24:48.796Z,4.88
2022-11-23T04:27:16.557Z,4.57
2022-11-23T04:29:43.992Z,4.28
2022-11-23T04:32:11.344Z,4.55
2022-11-23T04:34:39.988Z,4.40
2022-11-23T04:37:13.049Z,3.88
2022-11-23T04:39:42.303Z,4.18
2022-11-23T04:42:32.610Z,4.07
2022-11-23T04:45:02.064Z,4.13
2022-11-23T04:47:30.770Z,3.72
2022-11-23T04:50:01.771Z,4.20
2022-11-23T04:52:30.389Z,4.43
2022-11-23T04:54:58.519Z,4.65
2022-11-23T04:57:25.813Z,4.78
2022-11-23T04:59:53.364Z,5.07
2022-11-23T05:02:22.089Z,5.22
2022-11-23T05:04:54.506Z,5.55
2022-11-23T05:07:26.659Z,5.00
2022-11-23T05:09:58.321Z,5.18
2022-11-23T05:12:26.545Z,5.15
2022-11-23T05:14:53.947Z,5.70
2022-11-23T05:17:26.118Z,5.35
2022-11-23T05:19:56.183Z,5.37
2022-11-23T05:22:24.079Z,5.28
2022-11-23T05:24:51.414Z,4.78
2022-11-23T05:27:21.903Z,4.80
2022-11-23T05:29:50.479Z,5.30
2022-11-23T05:32:17.963Z,5.70
2022-11-23T05:34:45.307Z,5.18
2022-11-23T05:37:15.508Z,5.72
2022-11-23T05:39:51.506Z,5.88
2022-11-23T05:42:19.869Z,5.95
2022-11-23T05:44:48.376Z,7.20
2022-11-23T05:47:22.035Z,6.35
2022-11-23T05:49:50.542Z,6.07
2022-11-23T05:52:21.614Z,6.47
2022-11-23T05:54:52.093Z,6.60
2022-11-23T05:57:22.486Z,6.32
2022-11-23T05:59:51.079Z,6.75
2022-11-23T06:02:22.846Z,6.05
2022-11-23T06:04:54.695Z,5.45
2022-11-23T06:07:29.371Z,6.03
2022-11-23T06:10:06.080Z,4.95
2022-11-23T06:12:35.374Z,5.70
2022-11-23T06:15:06.937Z,6.00
2022-11-23T06:17:35.877Z,6.30
2022-11-23T06:20:07.088Z,7.82
2022-11-23T06:22:36.739Z,7.95
2022-11-23T06:25:06.742Z,8.15
2022-11-23T06:27:57.704Z,7.85
2022-11-23T06:33:04.979Z,8.77
2022-11-23T06:35:38.102Z,8.95
2022-11-23T06:38:05.472Z,11.40
2022-11-23T06:40:33.627Z,11.55
2022-11-23T06:43:01.266Z,10.25
2022-11-23T06:45:48.746Z,12.02
2022-11-23T06:48:16.347Z,10.05
2022-11-23T06:50:47.700Z,7.72
2022-11-23T06:53:19.513Z,7.22
2022-11-23T06:55:51.681Z,7.57
2022-11-23T06:58:20.890Z,7.28
2022-11-23T07:00:48.186Z,7.50
2022-11-23T07:03:24.724Z,8.15
2022-11-23T07:05:59.956Z,7.13
2022-11-23T07:08:30.076Z,8.02
2022-11-23T07:11:05.597Z,7.70
2022-11-23T07:13:33.474Z,8.25
2022-11-23T07:16:00.905Z,7.53
2022-11-23T07:18:28.433Z,6.93
2022-11-23T07:21:00.039Z,7.05
2022-11-23T07:23:27.853Z,7.93
2022-11-23T07:25:55.975Z,7.70
2022-11-23T07:28:23.483Z,8.10
2022-11-23T07:30:52.062Z,8.57
2022-11-23T07:33:21.026Z,8.40
2022-11-23T07:35:49.443Z,8.45
2022-11-23T07:38:16.754Z,8.23
2022-11-23T07:40:44.160Z,8.80
2022-11-23T07:43:25.636Z,8.88
2022-11-23T07:45:56.768Z,8.85
2022-11-23T07:48:24.713Z,9.98
2022-11-23T07:50:53.967Z,9.30
2022-11-23T07:53:21.377Z,8.57
2022-11-23T07:55:48.698Z,8.85
2022-11-23T07:58:16.025Z,8.43
2022-11-23T08:00:43.503Z,10.40
2022-11-23T08:03:30.063Z,10.80
2022-11-23T08:05:57.873Z,9.75
2022-11-23T08:08:25.240Z,8.93
2022-11-23T08:10:54.128Z,9.68
2022-11-23T08:13:22.554Z,9.38
2022-11-23T08:15:54.963Z,9.00
2022-11-23T08:18:27.434Z,9.05
2022-11-23T08:20:54.808Z,9.20
2022-11-23T08:23:22.431Z,10.05
2022-11-23T08:25:50.270Z,9.55
2022-11-23T08:28:18.000Z,9.75
2022-11-23T08:30:45.729Z,10.32
2022-11-23T08:33:14.021Z,9.80
2022-11-23T08:35:42.690Z,9.82
2022-11-23T08:38:10.820Z,10.70
2022-11-23T08:40:38.718Z,10.10
2022-11-23T08:43:06.465Z,9.65
2022-11-23T08:45:33.821Z,11.38
2022-11-23T08:48:02.647Z,11.27
2022-11-23T08:50:30.449Z,12.18
2022-11-23T08:52:58.890Z,12.32
2022-11-23T08:55:27.902Z,12.15
2022-11-23T08:57:59.288Z,12.87
2022-11-23T09:00:27.772Z,13.88
2022-11-23T09:02:58.862Z,14.32
2022-11-23T09:05:27.282Z,14.20
2022-11-23T09:07:56.079Z,12.45
2022-11-23T09:10:23.497Z,12.82
2022-11-23T09:12:50.965Z,13.05
2022-11-23T09:15:18.830Z,12.48
2022-11-23T09:17:46.274Z,11.38
2022-11-23T09:20:13.737Z,11.75
2022-11-23T09:22:41.099Z,11.70
2022-11-23T09:25:10.283Z,12.30
2022-11-23T09:27:37.715Z,12.48
2022-11-23T09:30:05.809Z,12.95
2022-11-23T09:32:33.147Z,13.32
2022-11-23T09:35:00.470Z,12.60
2022-11-23T09:37:27.895Z,12.82
2022-11-23T09:39:55.265Z,13.25
2022-11-23T09:42:41.329Z,13.20
2022-11-23T09:45:20.821Z,12.05
2022-11-23T09:48:22.305Z,11.15
2022-11-23T09:50:54.193Z,11.77
2022-11-23T09:53:30.928Z,12.25
2022-11-23T09:55:58.651Z,16.08
2022-11-23T09:58:35.238Z,31.30
2022-11-23T10:01:07.636Z,26.33
2022-11-23T10:03:41.537Z,16.55
2022-11-23T10:06:29.961Z,14.80
2022-11-23T10:09:32.920Z,23.33
2022-11-23T10:12:18.553Z,23.25
2022-11-23T10:15:12.203Z,23.80
2022-11-23T10:18:06.991Z,21.85
2022-11-23T10:20:54.003Z,20.73
2022-11-23T10:23:24.405Z,19.50
2022-11-23T10:25:52.747Z,18.27
2022-11-23T10:28:22.523Z,16.33
2022-11-23T10:33:41.593Z,18.95
2022-11-23T10:36:11.339Z,23.98
2022-11-23T10:38:38.720Z,24.77
2022-11-23T10:41:13.557Z,23.23
2022-11-23T10:44:01.030Z,21.38
2022-11-23T10:46:34.457Z,17.42
2022-11-23T10:49:17.427Z,16.70
2022-11-23T10:52:06.712Z,18.80
2022-11-23T10:54:41.178Z,18.60
2022-11-23T10:57:44.834Z,16.63
2022-11-23T11:00:13.210Z,16.60
2022-11-23T11:02:41.798Z,26.10
2022-11-23T11:08:49.510Z,17.02
2022-11-23T11:11:25.919Z,16.52
2022-11-23T11:14:03.572Z,16.55
2022-11-23T11:16:38.295Z,16.45
2022-11-23T11:19:34.720Z,17.52
2022-11-23T11:22:24.402Z,19.20
2022-11-23T11:24:51.851Z,15.98
2022-11-23T11:27:24.366Z,16.88
2022-11-23T11:29:55.555Z,17.33
2022-11-23T11:32:33.024Z,17.35
2022-11-23T11:35:40.729Z,17.17
2022-11-23T11:38:35.783Z,17.23
2022-11-23T11:41:09.513Z,16.08
2022-11-23T11:43:44.531Z,15.82
2022-11-23T11:46:32.373Z,14.95
2022-11-23T11:49:04.544Z,16.40
2022-11-23T11:51:58.458Z,19.55
2022-11-23T11:54:37.266Z,19.15
2022-11-23T11:57:20.371Z,18.75
2022-11-23T11:59:50.443Z,20.45
2022-11-23T12:02:42.072Z,21.33
2022-11-23T12:05:25.343Z,19.52
2022-11-23T12:08:24.213Z,18.25
2022-11-23T12:11:02.041Z,19.90
2022-11-23T12:13:34.920Z,18.77
2022-11-23T12:16:20.292Z,17.88
2022-11-23T12:19:09.312Z,17.83
2022-11-23T12:21:56.160Z,17.37
2022-11-23T12:24:58.084Z,17.08
2022-11-23T12:27:48.609Z,16.85
2022-11-23T12:30:19.523Z,16.88
2022-11-23T12:33:26.347Z,14.40
2022-11-23T12:36:08.709Z,12.13
2022-11-23T12:38:45.213Z,11.68
2022-11-23T12:41:31.149Z,10.95
2022-11-23T12:44:59.893Z,10.85
2022-11-23T12:47:30.059Z,9.23
2022-11-23T12:50:21.881Z,8.85
2022-11-23T12:53:05.256Z,8.90
2022-11-23T12:55:44.727Z,8.23
2022-11-23T12:58:28.053Z,9.18
2022-11-23T13:01:00.721Z,12.07
2022-11-23T13:03:38.492Z,10.80
2022-11-23T13:06:27.533Z,11.77
2022-11-23T13:09:13.705Z,10.17
2022-11-23T13:11:56.280Z,8.15
2022-11-23T13:15:14.059Z,7.43
2022-11-23T13:17:48.833Z,8.07
2022-11-23T13:20:28.502Z,9.52
2022-11-23T13:22:58.713Z,7.78
2022-11-23T13:25:28.701Z,7.40
2022-11-23T13:28:04.895Z,8.30
2022-11-23T13:33:38.194Z,9.23
2022-11-23T13:36:13.909Z,10.88
2022-11-23T13:38:45.803Z,10.82
2022-11-23T13:42:01.598Z,13.57
2022-11-23T13:44:32.432Z,14.10
2022-11-23T13:47:12.193Z,11.82
2022-11-23T13:49:47.210Z,44.78
2022-11-23T13:52:23.714Z,41.78
2022-11-23T13:55:10.421Z,30.08
2022-11-23T13:57:39.628Z,40.40
2022-11-23T14:00:44.684Z,22.20
2022-11-23T14:03:43.283Z,21.02
2022-11-23T14:06:13.361Z,15.07
2022-11-23T14:08:41.774Z,21.17
2022-11-23T14:11:14.936Z,39.85
2022-11-23T14:13:53.655Z,35.88
2022-11-23T14:16:54.462Z,30.17
2022-11-23T14:19:35.113Z,36.00
2022-11-23T14:22:11.495Z,26.77
2022-11-23T14:25:09.004Z,24.60
2022-11-23T14:28:10.561Z,23.70
2022-11-23T14:30:53.052Z,26.77
2022-11-23T14:33:44.494Z,21.60
2022-11-23T14:36:18.049Z,25.13
2022-11-23T14:39:08.270Z,22.33
2022-11-23T14:41:36.650Z,16.60
2022-11-23T14:44:06.083Z,21.40
2022-11-23T14:46:33.530Z,19.42
2022-11-23T14:49:11.011Z,15.18
2022-11-23T14:51:43.510Z,20.60
2022-11-23T14:54:12.405Z,21.38
2022-11-23T14:56:45.320Z,19.27
2022-11-23T14:59:42.940Z,19.52
2022-11-23T15:02:22.253Z,17.92
2022-11-23T15:05:20.844Z,20.08
2022-11-23T15:08:25.843Z,25.13
2022-11-23T15:11:06.225Z,22.75
2022-11-23T15:13:44.393Z,24.40
2022-11-23T15:16:14.150Z,19.15
2022-11-23T15:18:44.665Z,20.60
2022-11-23T15:21:12.030Z,18.40
2022-11-23T15:23:47.654Z,17.98
2022-11-23T15:26:46.187Z,16.85
2022-11-23T15:29:30.599Z,15.43
2022-11-23T15:34:46.638Z,15.63
2022-11-23T15:37:14.171Z,14.35
2022-11-23T15:39:42.461Z,15.00
2022-11-23T15:42:17.670Z,14.80
2022-11-23T15:44:50.316Z,15.65
2022-11-23T15:47:28.150Z,15.55
2022-11-23T15:50:09.471Z,17.73
2022-11-23T15:52:37.861Z,14.15
2022-11-23T15:55:10.041Z,14.10
2022-11-23T15:57:39.675Z,15.43
2022-11-23T16:00:09.484Z,17.48
2022-11-23T16:02:39.870Z,15.35
2022-11-23T16:05:17.834Z,14.05
2022-11-23T16:08:00.089Z,14.05
2022-11-23T16:10:30.044Z,13.73
2022-11-23T16:15:38.360Z,13.15
2022-11-23T16:18:12.835Z,13.43
2022-11-23T16:20:44.952Z,12.80
2022-11-23T16:23:20.004Z,11.52
2022-11-23T16:25:55.446Z,12.82
2022-11-23T16:28:32.577Z,14.18
2022-11-23T16:31:00.759Z,15.43
2022-11-23T16:33:28.999Z,13.60
2022-11-23T16:35:56.836Z,14.95
2022-11-23T16:38:24.830Z,12.77
2022-11-23T16:40:52.310Z,13.20
2022-11-23T16:43:19.649Z,13.32
2022-11-23T16:45:49.287Z,13.60
2022-11-23T16:48:25.754Z,12.40
2022-11-23T16:50:57.546Z,14.43
2022-11-23T16:53:30.176Z,11.63
2022-11-23T16:56:00.374Z,12.20
2022-11-23T16:58:32.010Z,11.65
2022-11-23T17:01:01.469Z,12.45
2022-11-23T17:03:28.915Z,11.70
2022-11-23T17:05:56.571Z,13.98
2022-11-23T17:08:24.205Z,14.65
2022-11-23T17:10:51.922Z,15.57
2022-11-23T17:13:23.972Z,15.10
2022-11-23T17:15:51.973Z,16.48
2022-11-23T17:18:19.410Z,17.13
2022-11-23T17:20:46.741Z,17.55
2022-11-23T17:23:14.021Z,19.80
2022-11-23T17:25:41.615Z,19.75
2022-11-23T17:28:16.160Z,18.05
2022-11-23T17:30:43.794Z,16.52
2022-11-23T17:33:12.173Z,17.60
2022-11-23T17:35:40.453Z,15.73
2022-11-23T17:38:17.122Z,13.15
2022-11-23T17:40:44.510Z,13.48
2022-11-23T17:43:14.246Z,15.93
2022-11-23T17:45:42.789Z,16.77
2022-11-23T17:48:13.302Z,15.32
2022-11-23T17:50:40.762Z,13.90
2022-11-23T17:53:09.864Z,15.55
2022-11-23T17:55:37.586Z,13.65
2022-11-23T17:58:06.032Z,12.48
2022-11-23T18:00:34.763Z,14.00
2022-11-23T18:03:02.429Z,14.50
2022-11-23T18:05:30.137Z,14.52
2022-11-23T18:07:57.448Z,16.27
2022-11-23T18:10:25.101Z,14.93
2022-11-23T18:12:52.461Z,15.40
2022-11-23T18:15:19.879Z,18.35
2022-11-23T18:17:47.302Z,17.67
2022-11-23T18:20:15.678Z,16.20
2022-11-23T18:22:43.185Z,17.00
2022-11-23T18:25:10.510Z,21.73
2022-11-23T18:27:37.958Z,23.58
2022-11-23T18:30:05.884Z,22.85
2022-11-23T18:32:33.176Z,18.10
2022-11-23T18:35:00.483Z,18.70
2022-11-23T18:37:27.750Z,19.08
2022-11-23T18:39:55.090Z,21.15
2022-11-23T18:42:23.216Z,19.30
2022-11-23T18:44:50.571Z,19.70
2022-11-23T18:47:17.870Z,21.58
2022-11-23T18:49:45.246Z,21.08
2022-11-23T18:52:13.936Z,20.55
2022-11-23T18:54:41.238Z,18.77
2022-11-23T18:57:08.713Z,17.77
2022-11-23T18:59:56.989Z,17.95
2022-11-23T19:02:23.438Z,16.30
2022-11-23T19:04:53.437Z,21.10
2022-11-23T19:09:54.584Z,15.60
2022-11-23T19:12:22.099Z,17.67
2022-11-23T19:14:50.089Z,16.70
2022-11-23T19:17:17.557Z,16.13
2022-11-23T19:19:44.876Z,17.02
2022-11-23T19:22:12.307Z,15.60
2022-11-23T19:24:40.234Z,16.70
2022-11-23T19:27:07.619Z,18.63
2022-11-23T19:29:35.193Z,15.25
2022-11-23T19:32:02.655Z,14.50
2022-11-23T19:34:30.064Z,14.90
2022-11-23T19:36:57.480Z,14.68
2022-11-23T19:39:24.938Z,12.93
2022-11-23T19:41:52.299Z,13.48
2022-11-23T19:44:19.729Z,13.20
2022-11-23T19:46:47.109Z,12.93
2022-11-23T19:49:14.452Z,12.70
2022-11-23T19:51:41.724Z,13.65
2022-11-23T19:54:09.933Z,13.85
2022-11-23T19:56:37.384Z,12.77
2022-11-23T19:59:04.989Z,13.27
2022-11-23T20:01:32.879Z,13.75
2022-11-23T20:04:09.532Z,14.35
2022-11-23T20:06:42.069Z,14.25
2022-11-23T20:09:12.391Z,15.63
2022-11-23T20:11:40.837Z,14.20
2022-11-23T20:14:11.670Z,12.90
2022-11-23T20:16:39.541Z,11.05
2022-11-23T20:19:09.016Z,11.68
2022-11-23T20:21:37.244Z,11.45
2022-11-23T20:24:11.527Z,11.75
2022-11-23T20:26:39.630Z,10.88
2022-11-23T20:29:07.997Z,10.63
2022-11-23T20:31:36.952Z,11.10
2022-11-23T20:34:07.364Z,11.30
2022-11-23T20:36:38.362Z,11.32
2022-11-23T20:39:10.098Z,10.82
2022-11-23T20:41:38.600Z,10.93
2022-11-23T20:44:14.180Z,11.55
2022-11-23T20:49:30.143Z,11.70
2022-11-23T20:51:58.358Z,12.55
2022-11-23T20:54:25.635Z,12.20
2022-11-23T20:56:53.172Z,11.65
2022-11-23T20:59:20.728Z,10.88
2022-11-23T21:01:48.164Z,11.05
2022-11-23T21:04:15.524Z,10.25
2022-11-23T21:06:42.922Z,9.45
2022-11-23T21:09:11.224Z,8.23
2022-11-23T21:11:57.334Z,9.93
2022-11-23T21:14:27.981Z,9.20
2022-11-23T21:16:59.314Z,8.85
2022-11-23T21:19:29.252Z,9.07
2022-11-23T21:21:58.079Z,8.35
2022-11-23T21:24:25.873Z,8.88
2022-11-23T21:26:53.462Z,9.48
2022-11-23T21:29:20.824Z,9.68
2022-11-23T21:31:49.083Z,9.35
2022-11-23T21:34:20.473Z,9.07
2022-11-23T21:36:48.605Z,8.90
2022-11-23T21:39:16.488Z,8.80
2022-11-23T21:41:44.053Z,8.35
2022-11-23T21:44:12.358Z,9.32
2022-11-23T21:46:41.282Z,9.38
2022-11-23T21:49:09.434Z,9.05
2022-11-23T21:51:38.108Z,10.27
2022-11-23T21:54:16.019Z,10.23
2022-11-23T21:56:47.103Z,9.15
2022-11-23T21:59:14.493Z,8.52
2022-11-23T22:01:42.185Z,8.13
2022-11-23T22:04:15.477Z,7.45
2022-11-23T22:06:45.090Z,7.53
2022-11-23T22:09:13.457Z,7.20
2022-11-23T22:11:45.362Z,7.53
2022-11-23T22:14:14.772Z,7.38
2022-11-23T22:16:56.718Z,7.70
2022-11-23T22:19:23.970Z,7.60
2022-11-23T22:21:51.304Z,7.22
2022-11-23T22:24:19.607Z,7.53
2022-11-23T22:26:47.861Z,8.18
2022-11-23T22:29:15.638Z,8.40
2022-11-23T22:31:43.812Z,8.32
2022-11-23T22:34:13.138Z,8.43
2022-11-23T22:36:40.824Z,9.07
2022-11-23T22:39:08.468Z,8.52
2022-11-23T22:41:37.548Z,9.20
2022-11-23T22:44:10.132Z,9.40
2022-11-23T22:46:38.510Z,9.13
2022-11-23T22:49:06.085Z,10.63
2022-11-23T22:51:33.712Z,10.73
2022-11-23T22:54:02.167Z,10.55
2022-11-23T22:56:31.152Z,9.98
2022-11-23T22:58:59.373Z,10.00
2022-11-23T23:01:29.237Z,10.30
2022-11-23T23:03:58.779Z,10.55
2022-11-23T23:06:29.308Z,10.65
2022-11-23T23:08:59.101Z,11.20
2022-11-23T23:11:29.163Z,11.68
2022-11-23T23:13:57.065Z,12.38
2022-11-23T23:16:25.285Z,12.75
2022-11-23T23:18:55.582Z,11.48
2022-11-23T23:21:23.342Z,13.18
2022-11-23T23:23:54.208Z,13.43
2022-11-23T23:26:26.109Z,13.27
2022-11-23T23:28:55.894Z,13.93
2022-11-23T23:31:24.109Z,14.32
2022-11-23T23:33:53.564Z,13.68
2022-11-23T23:36:22.610Z,16.38
2022-11-23T23:38:50.990Z,15.40
2022-11-23T23:41:18.869Z,14.90
2022-11-23T23:43:48.174Z,14.95
2022-11-23T23:46:17.386Z,15.27
2022-11-23T23:48:45.005Z,16.02
2022-11-23T23:51:24.830Z,16.98
2022-11-23T23:53:52.753Z,17.08
2022-11-23T23:56:26.176Z,16.83
2022-11-23T23:58:56.605Z,17.42
